createdAt,value
2018-08-03T00:01:28.694Z,8.10
2018-08-03T00:03:57.269Z,8.77
2018-08-03T00:06:26.333Z,8.80
2018-08-03T00:08:54.868Z,7.80
2018-08-03T00:11:23.453Z,7.87
2018-08-03T00:13:52.153Z,8.10
2018-08-03T00:16:21.405Z,8.37
2018-08-03T00:18:50.852Z,7.90
2018-08-03T00:21:19.966Z,8.00
2018-08-03T00:23:48.521Z,8.30
2018-08-03T00:26:17.053Z,8.70
2018-08-03T00:28:45.260Z,8.77
2018-08-03T00:31:14.658Z,8.80
2018-08-03T00:33:43.247Z,7.30
2018-08-03T00:36:11.848Z,7.77
2018-08-03T00:38:40.405Z,7.80
2018-08-03T00:41:08.950Z,8.10
2018-08-03T00:43:37.545Z,8.27
2018-08-03T00:46:06.723Z,7.77
2018-08-03T00:48:35.309Z,8.17
2018-08-03T00:51:03.896Z,8.83
2018-08-03T00:53:32.464Z,8.07
2018-08-03T00:56:01.573Z,8.47
2018-08-03T00:58:30.140Z,8.23
2018-08-03T01:00:59.761Z,8.40
2018-08-03T01:03:28.322Z,7.97
2018-08-03T01:05:56.829Z,8.70
2018-08-03T01:08:25.409Z,8.83
2018-08-03T01:10:54.709Z,8.03
2018-08-03T01:13:23.256Z,7.03
2018-08-03T01:27:09.865Z,8.63
2018-08-03T01:29:38.386Z,7.60
2018-08-03T01:32:06.917Z,7.97
2018-08-03T01:34:35.446Z,8.37
2018-08-03T01:37:03.982Z,7.90
2018-08-03T01:39:32.493Z,7.47
2018-08-03T01:42:01.057Z,7.67
2018-08-03T01:44:29.593Z,9.10
2018-08-03T01:46:57.969Z,8.37
2018-08-03T01:49:26.196Z,8.13
2018-08-03T01:51:54.728Z,8.00
2018-08-03T01:54:23.279Z,8.00
2018-08-03T01:56:51.797Z,8.00
2018-08-03T01:59:20.352Z,8.30
2018-08-03T02:01:48.834Z,8.20
2018-08-03T02:04:17.376Z,8.37
2018-08-03T02:06:45.889Z,7.67
2018-08-03T02:09:14.408Z,8.13
2018-08-03T02:11:42.933Z,8.50
2018-08-03T02:14:11.464Z,9.27
2018-08-03T02:16:39.993Z,8.40
2018-08-03T02:19:08.809Z,8.00
2018-08-03T02:21:37.317Z,8.70
2018-08-03T02:24:05.897Z,8.80
2018-08-03T02:26:34.435Z,8.20
2018-08-03T02:29:03.017Z,8.90
2018-08-03T02:31:31.546Z,8.20
2018-08-03T02:34:00.331Z,8.63
2018-08-03T02:36:29.836Z,8.53
2018-08-03T02:38:58.897Z,8.73
2018-08-03T02:41:27.413Z,8.40
2018-08-03T02:43:55.967Z,9.43
2018-08-03T02:46:24.481Z,8.27
2018-08-03T02:48:53.553Z,8.57
2018-08-03T02:51:22.739Z,8.47
2018-08-03T02:53:51.277Z,8.13
2018-08-03T02:56:19.830Z,8.77
2018-08-03T02:58:48.423Z,7.83
2018-08-03T03:01:17.585Z,8.37
2018-08-03T03:03:46.152Z,8.10
2018-08-03T03:06:14.709Z,7.77
2018-08-03T03:08:43.321Z,8.20
2018-08-03T03:11:11.865Z,7.57
2018-08-03T03:13:40.435Z,8.07
2018-08-03T03:16:09.636Z,7.93
2018-08-03T03:18:38.232Z,7.67
2018-08-03T03:21:07.860Z,7.57
2018-08-03T03:23:36.427Z,7.53
2018-08-03T03:26:05.732Z,7.27
2018-08-03T03:28:35.062Z,7.13
2018-08-03T03:31:03.613Z,7.73
2018-08-03T03:33:32.224Z,8.80
2018-08-03T03:36:02.052Z,8.60
2018-08-03T03:38:30.625Z,8.60
2018-08-03T03:40:59.208Z,8.07
2018-08-03T03:43:27.793Z,8.87
2018-08-03T03:45:57.067Z,8.80
2018-08-03T03:48:25.664Z,8.90
2018-08-03T03:50:54.227Z,8.07
2018-08-03T03:53:23.478Z,7.93
2018-08-03T03:55:56.313Z,7.57
2018-08-03T03:58:25.662Z,7.27
2018-08-03T04:00:54.201Z,6.87
2018-08-03T04:03:23.465Z,7.03
2018-08-03T04:05:52.060Z,7.40
2018-08-03T04:08:21.118Z,6.73
2018-08-03T04:10:49.965Z,7.33
2018-08-03T04:13:18.544Z,7.40
2018-08-03T04:15:47.128Z,7.30
2018-08-03T04:18:21.824Z,7.53
2018-08-03T04:20:52.285Z,7.50
2018-08-03T04:23:21.040Z,7.33
2018-08-03T04:25:49.666Z,7.33
2018-08-03T04:28:19.312Z,6.80
2018-08-03T04:30:47.936Z,7.47
2018-08-03T04:33:17.431Z,7.40
2018-08-03T04:35:45.973Z,7.67
2018-08-03T04:38:15.582Z,7.53
2018-08-03T04:40:44.729Z,6.93
2018-08-03T04:43:13.901Z,6.83
2018-08-03T04:45:42.432Z,7.37
2018-08-03T04:48:11.445Z,7.73
2018-08-03T04:50:40.087Z,7.30
2018-08-03T04:53:09.922Z,7.70
2018-08-03T04:55:38.548Z,7.70
2018-08-03T04:58:07.071Z,7.40
2018-08-03T05:00:35.653Z,7.53
2018-08-03T05:03:04.198Z,7.63
2018-08-03T05:05:32.782Z,6.93
2018-08-03T05:08:01.356Z,7.73
2018-08-03T05:10:29.949Z,6.80
2018-08-03T05:12:58.489Z,7.17
2018-08-03T05:15:27.090Z,6.83
2018-08-03T05:17:55.653Z,8.07
2018-08-03T05:20:24.289Z,8.00
2018-08-03T05:22:52.540Z,7.70
2018-08-03T05:25:21.182Z,7.63
2018-08-03T05:27:49.745Z,7.73
2018-08-03T05:30:18.375Z,6.87
2018-08-03T05:32:46.933Z,6.93
2018-08-03T05:35:15.518Z,6.63
2018-08-03T05:37:44.073Z,6.40
2018-08-03T05:40:12.953Z,6.03
2018-08-03T05:42:41.489Z,6.10
2018-08-03T05:45:10.433Z,6.07
2018-08-03T05:47:38.637Z,6.10
2018-08-03T05:50:07.612Z,6.17
2018-08-03T05:52:36.218Z,5.90
2018-08-03T05:55:04.966Z,5.40
2018-08-03T05:57:33.509Z,6.30
2018-08-03T06:00:02.074Z,6.40
2018-08-03T06:02:30.704Z,6.20
2018-08-03T06:04:59.274Z,5.30
2018-08-03T06:07:28.757Z,6.23
2018-08-03T06:09:57.308Z,5.80
2018-08-03T06:12:25.501Z,6.20
2018-08-03T06:14:54.194Z,5.77
2018-08-03T06:17:22.693Z,6.23
2018-08-03T06:19:51.277Z,5.80
2018-08-03T06:22:19.834Z,5.77
2018-08-03T06:24:48.436Z,6.20
2018-08-03T06:27:16.985Z,5.83
2018-08-03T06:29:45.255Z,6.07
2018-08-03T06:32:13.782Z,6.53
2018-08-03T06:34:42.377Z,6.70
2018-08-03T06:37:10.931Z,6.13
2018-08-03T06:39:39.544Z,5.83
2018-08-03T06:42:07.812Z,6.13
2018-08-03T06:44:36.337Z,7.20
2018-08-03T06:47:04.925Z,7.07
2018-08-03T06:49:33.542Z,6.93
2018-08-03T06:52:02.255Z,6.90
2018-08-03T06:54:30.838Z,6.60
2018-08-03T06:56:59.476Z,7.50
2018-08-03T06:59:28.055Z,8.00
2018-08-03T07:01:56.753Z,7.13
2018-08-03T07:04:25.324Z,6.63
2018-08-03T07:06:53.936Z,6.70
2018-08-03T07:09:22.588Z,6.33
2018-08-03T07:11:51.168Z,6.57
2018-08-03T07:14:19.753Z,6.00
2018-08-03T07:16:48.353Z,5.97
2018-08-03T07:19:16.909Z,6.40
2018-08-03T07:21:45.492Z,6.53
2018-08-03T07:24:14.073Z,6.83
2018-08-03T07:26:42.724Z,6.67
2018-08-03T07:29:11.279Z,6.80
2018-08-03T07:31:39.559Z,7.23
2018-08-03T07:34:08.176Z,7.17
2018-08-03T07:36:36.790Z,7.13
2018-08-03T07:39:06.216Z,7.17
2018-08-03T07:41:34.894Z,6.83
2018-08-03T07:44:03.552Z,6.50
2018-08-03T07:46:32.135Z,6.87
2018-08-03T07:49:00.748Z,7.10
2018-08-03T07:51:29.433Z,6.97
2018-08-03T07:53:57.992Z,7.20
2018-08-03T07:56:27.203Z,7.67
2018-08-03T07:58:55.774Z,6.97
2018-08-03T08:01:24.554Z,6.67
2018-08-03T08:03:53.849Z,7.23
2018-08-03T08:06:23.121Z,7.27
2018-08-03T08:08:52.034Z,7.17
2018-08-03T08:11:21.414Z,7.40
2018-08-03T08:13:50.042Z,7.10
2018-08-03T08:16:25.154Z,7.23
2018-08-03T08:18:54.367Z,7.10
2018-08-03T08:21:22.956Z,6.93
2018-08-03T08:23:52.144Z,7.67
2018-08-03T08:26:20.961Z,7.53
2018-08-03T08:28:49.540Z,7.47
2018-08-03T08:31:18.134Z,7.27
2018-08-03T08:33:46.713Z,7.30
2018-08-03T08:36:15.326Z,7.23
2018-08-03T08:38:43.952Z,7.00
2018-08-03T08:41:13.580Z,8.23
2018-08-03T08:43:42.882Z,7.73
2018-08-03T08:46:12.290Z,7.60
2018-08-03T08:48:40.846Z,7.50
2018-08-03T08:51:09.553Z,7.83
2018-08-03T08:53:38.885Z,7.87
2018-08-03T08:56:07.514Z,7.50
2018-08-03T08:58:36.056Z,7.93
2018-08-03T09:01:05.314Z,6.97
2018-08-03T09:03:34.401Z,7.20
2018-08-03T09:06:02.953Z,7.60
2018-08-03T09:08:31.510Z,7.77
2018-08-03T09:11:00.192Z,6.90
2018-08-03T09:13:29.488Z,7.90
2018-08-03T09:15:58.076Z,7.87
2018-08-03T09:18:26.689Z,7.40
2018-08-03T09:20:55.757Z,7.03
2018-08-03T09:23:24.669Z,7.73
2018-08-03T09:25:55.578Z,7.20
2018-08-03T09:28:24.308Z,7.40
2018-08-03T09:30:52.927Z,7.23
2018-08-03T09:33:22.449Z,7.47
2018-08-03T09:35:51.096Z,7.10
2018-08-03T09:38:19.320Z,7.10
2018-08-03T09:40:47.874Z,6.57
2018-08-03T09:43:16.685Z,6.10
2018-08-03T09:45:45.301Z,7.20
2018-08-03T09:48:14.593Z,7.20
2018-08-03T09:50:44.138Z,6.50
2018-08-03T09:53:12.809Z,6.83
2018-08-03T09:55:41.349Z,6.80
2018-08-03T09:58:09.925Z,7.43
2018-08-03T10:00:43.776Z,5.60
2018-08-03T10:03:12.385Z,5.80
2018-08-03T10:05:40.606Z,6.30
2018-08-03T10:08:09.173Z,6.10
2018-08-03T10:10:37.728Z,5.80
2018-08-03T10:13:06.309Z,6.23
2018-08-03T10:15:34.532Z,5.73
2018-08-03T10:18:03.073Z,5.77
2018-08-03T10:20:31.261Z,6.07
2018-08-03T10:22:59.566Z,5.37
2018-08-03T10:25:28.152Z,5.30
2018-08-03T10:27:56.740Z,5.57
2018-08-03T10:30:25.962Z,5.30
2018-08-03T10:32:54.565Z,4.67
2018-08-03T10:35:24.237Z,5.00
2018-08-03T10:37:52.846Z,5.13
2018-08-03T10:40:21.380Z,5.10
2018-08-03T10:42:49.992Z,5.57
2018-08-03T10:45:18.578Z,4.60
2018-08-03T10:47:47.157Z,5.20
2018-08-03T10:50:16.916Z,5.10
2018-08-03T10:52:45.504Z,5.33
2018-08-03T10:55:13.749Z,5.10
2018-08-03T10:57:42.353Z,5.37
2018-08-03T11:00:16.375Z,5.17
2018-08-03T11:02:44.621Z,4.40
2018-08-03T11:05:13.181Z,4.60
2018-08-03T11:07:41.764Z,4.50
2018-08-03T11:10:10.338Z,4.77
2018-08-03T11:12:38.905Z,4.63
2018-08-03T11:15:07.461Z,5.00
2018-08-03T11:17:36.681Z,4.53
2018-08-03T11:20:05.402Z,4.80
2018-08-03T11:22:34.033Z,4.90
2018-08-03T11:25:02.966Z,4.40
2018-08-03T11:27:31.536Z,4.40
2018-08-03T11:30:00.187Z,4.50
2018-08-03T11:32:29.536Z,4.40
2018-08-03T11:34:58.084Z,4.53
2018-08-03T11:37:27.116Z,4.80
2018-08-03T11:39:55.661Z,4.63
2018-08-03T11:42:24.264Z,4.47
2018-08-03T11:44:52.824Z,4.67
2018-08-03T11:47:21.453Z,4.90
2018-08-03T11:49:50.071Z,4.23
2018-08-03T11:52:18.704Z,4.40
2018-08-03T11:54:47.252Z,4.53
2018-08-03T11:57:15.845Z,4.67
2018-08-03T11:59:44.404Z,4.67
2018-08-03T12:02:13.005Z,4.40
2018-08-03T12:04:42.501Z,4.67
2018-08-03T12:07:11.385Z,4.40
2018-08-03T12:09:39.966Z,4.63
2018-08-03T12:12:08.873Z,4.60
2018-08-03T12:14:38.030Z,4.77
2018-08-03T12:17:06.654Z,4.23
2018-08-03T12:19:35.249Z,4.43
2018-08-03T12:22:04.625Z,4.13
2018-08-03T12:24:33.335Z,3.73
2018-08-03T12:27:02.577Z,4.70
2018-08-03T12:29:31.385Z,4.03
2018-08-03T12:32:00.157Z,4.37
2018-08-03T12:34:28.801Z,4.40
2018-08-03T12:36:57.473Z,4.63
2018-08-03T12:39:26.113Z,4.20
2018-08-03T12:41:54.694Z,4.30
2018-08-03T12:44:23.517Z,4.10
2018-08-03T12:46:52.104Z,3.90
2018-08-03T12:49:20.891Z,4.27
2018-08-03T12:51:49.474Z,3.60
2018-08-03T12:54:18.037Z,3.80
2018-08-03T12:56:46.640Z,4.17
2018-08-03T12:59:15.735Z,4.20
2018-08-03T13:01:45.178Z,4.33
2018-08-03T13:04:13.935Z,4.00
2018-08-03T13:06:42.616Z,4.13
2018-08-03T13:09:11.284Z,3.83
2018-08-03T13:11:40.097Z,4.00
2018-08-03T13:14:08.897Z,3.93
2018-08-03T13:16:37.785Z,3.90
2018-08-03T13:19:07.505Z,4.30
2018-08-03T13:21:38.521Z,3.87
2018-08-03T13:24:07.542Z,4.10
2018-08-03T13:26:37.181Z,3.80
2018-08-03T13:29:05.537Z,3.87
2018-08-03T13:31:34.122Z,3.90
2018-08-03T13:34:02.741Z,3.63
2018-08-03T13:36:32.581Z,3.70
2018-08-03T13:39:01.750Z,3.63
2018-08-03T13:41:30.372Z,4.07
2018-08-03T13:43:59.471Z,3.77
2018-08-03T13:46:28.512Z,3.90
2018-08-03T13:48:56.740Z,3.77
2018-08-03T13:51:25.301Z,3.77
2018-08-03T13:53:53.853Z,4.13
2018-08-03T13:56:22.389Z,3.67
2018-08-03T13:58:50.933Z,3.93
2018-08-03T14:01:30.842Z,3.93
2018-08-03T14:03:59.446Z,3.97
2018-08-03T14:06:27.978Z,4.13
2018-08-03T14:08:56.549Z,4.20
2018-08-03T14:11:25.108Z,3.80
2018-08-03T14:13:53.803Z,4.00
2018-08-03T14:16:21.997Z,3.80
2018-08-03T14:18:50.548Z,4.03
2018-08-03T14:21:19.785Z,3.90
2018-08-03T14:23:48.352Z,3.90
2018-08-03T14:26:16.903Z,4.03
2018-08-03T14:28:46.200Z,3.80
2018-08-03T14:31:15.020Z,4.27
2018-08-03T14:33:43.962Z,3.90
2018-08-03T14:36:12.964Z,4.07
2018-08-03T14:38:41.997Z,4.07
2018-08-03T14:41:10.538Z,4.40
2018-08-03T14:43:39.097Z,3.90
2018-08-03T14:46:07.706Z,4.00
2018-08-03T14:48:36.277Z,4.23
2018-08-03T14:51:04.945Z,4.30
2018-08-03T14:53:33.545Z,3.90
2018-08-03T14:56:02.100Z,4.13
2018-08-03T14:58:30.653Z,4.23
2018-08-03T15:00:59.182Z,4.43
2018-08-03T15:03:27.729Z,4.20
2018-08-03T15:05:55.943Z,4.13
2018-08-03T15:08:24.453Z,4.30
2018-08-03T15:10:53.026Z,4.20
2018-08-03T15:13:21.576Z,4.00
2018-08-03T15:15:50.125Z,4.20
2018-08-03T15:18:18.680Z,4.10
2018-08-03T15:20:47.289Z,3.60
2018-08-03T15:23:15.866Z,4.03
2018-08-03T15:25:44.420Z,4.20
2018-08-03T15:28:12.973Z,3.90
2018-08-03T15:30:41.187Z,4.23
2018-08-03T15:33:09.744Z,3.80
2018-08-03T15:35:38.338Z,3.90
2018-08-03T15:38:07.141Z,3.93
2018-08-03T15:40:35.732Z,3.80
2018-08-03T15:43:04.265Z,4.60
2018-08-03T15:45:32.893Z,3.83
2018-08-03T15:48:02.494Z,4.27
2018-08-03T15:50:31.125Z,4.03
2018-08-03T15:53:00.258Z,4.40
2018-08-03T15:55:28.835Z,4.33
2018-08-03T15:57:57.379Z,4.00
2018-08-03T16:00:25.960Z,3.90
2018-08-03T16:02:54.567Z,4.23
2018-08-03T16:05:23.198Z,3.70
2018-08-03T16:07:51.773Z,4.03
2018-08-03T16:10:20.366Z,3.97
2018-08-03T16:12:48.985Z,3.80
2018-08-03T16:15:18.261Z,4.17
2018-08-03T16:17:46.940Z,3.93
2018-08-03T16:20:15.517Z,4.50
2018-08-03T16:22:44.648Z,3.93
2018-08-03T16:25:13.249Z,4.50
2018-08-03T16:27:41.886Z,3.93
2018-08-03T16:30:11.133Z,4.30
2018-08-03T16:32:40.371Z,4.43
2018-08-03T16:35:09.832Z,4.33
2018-08-03T16:37:38.374Z,4.00
2018-08-03T16:40:08.231Z,4.37
2018-08-03T16:42:36.972Z,4.23
2018-08-03T16:45:07.292Z,4.40
2018-08-03T16:47:35.981Z,4.30
2018-08-03T16:50:05.264Z,4.47
2018-08-03T16:52:33.801Z,4.30
2018-08-03T16:55:02.385Z,4.60
2018-08-03T16:57:30.905Z,4.60
2018-08-03T16:59:59.116Z,4.20
2018-08-03T17:02:28.183Z,4.43
2018-08-03T17:04:56.786Z,4.43
2018-08-03T17:07:25.984Z,4.60
2018-08-03T17:09:54.556Z,4.33
2018-08-03T17:12:23.638Z,4.27
2018-08-03T17:14:52.176Z,4.20
2018-08-03T17:17:20.729Z,4.40
2018-08-03T17:19:50.115Z,4.37
2018-08-03T17:22:18.289Z,4.30
2018-08-03T17:24:46.484Z,4.57
2018-08-03T17:27:15.603Z,4.27
2018-08-03T17:29:44.158Z,5.20
2018-08-03T17:32:12.673Z,4.83
2018-08-03T17:34:41.921Z,5.07
2018-08-03T17:37:10.101Z,5.10
2018-08-03T17:39:38.302Z,5.37
2018-08-03T17:42:06.872Z,5.20
2018-08-03T17:44:35.457Z,4.40
2018-08-03T17:47:04.616Z,5.60
2018-08-03T17:49:33.656Z,5.50
2018-08-03T17:52:02.213Z,5.50
2018-08-03T17:54:30.400Z,6.07
2018-08-03T17:56:59.092Z,5.27
2018-08-03T17:59:28.917Z,5.43
2018-08-03T18:01:57.481Z,5.47
2018-08-03T18:04:26.022Z,6.53
2018-08-03T18:06:54.641Z,5.80
2018-08-03T18:09:22.871Z,5.70
2018-08-03T18:11:51.457Z,6.00
2018-08-03T18:14:21.271Z,5.63
2018-08-03T18:16:49.865Z,5.73
2018-08-03T18:19:18.410Z,5.50
2018-08-03T18:21:47.037Z,5.90
2018-08-03T18:24:15.569Z,5.67
2018-08-03T18:26:44.914Z,6.50
2018-08-03T18:29:13.507Z,6.17
2018-08-03T18:31:42.594Z,6.03
2018-08-03T18:34:11.129Z,5.80
2018-08-03T18:36:39.713Z,5.30
2018-08-03T18:39:10.985Z,5.40
2018-08-03T18:41:39.610Z,5.80
2018-08-03T18:44:09.055Z,5.67
2018-08-03T18:46:37.688Z,6.23
2018-08-03T18:49:06.230Z,6.50
2018-08-03T18:51:34.939Z,6.20
2018-08-03T18:54:03.626Z,5.50
2018-08-03T18:56:33.123Z,6.57
2018-08-03T18:59:02.270Z,6.27
2018-08-03T19:01:30.861Z,5.60
2018-08-03T19:03:59.098Z,5.47
2018-08-03T19:06:27.669Z,6.43
2018-08-03T19:08:56.264Z,6.20
2018-08-03T19:11:25.227Z,6.03
2018-08-03T19:13:53.810Z,6.30
2018-08-03T19:16:22.400Z,5.70
2018-08-03T19:18:50.957Z,6.23
2018-08-03T19:21:19.221Z,6.20
2018-08-03T19:23:48.240Z,6.23
2018-08-03T19:26:18.001Z,6.30
2018-08-03T19:28:46.574Z,6.47
2018-08-03T19:31:15.765Z,6.17
2018-08-03T19:33:44.312Z,6.03
2018-08-03T19:36:14.187Z,6.70
2018-08-03T19:38:43.532Z,6.10
2018-08-03T19:41:12.337Z,6.30
2018-08-03T19:43:40.881Z,6.23
2018-08-03T19:46:09.481Z,5.67
2018-08-03T19:48:37.844Z,5.87
2018-08-03T19:51:08.062Z,6.97
2018-08-03T19:53:37.329Z,6.30
2018-08-03T19:56:06.376Z,6.10
2018-08-03T19:58:34.630Z,6.03
2018-08-03T20:01:03.228Z,6.57
2018-08-03T20:03:31.881Z,6.27
2018-08-03T20:06:00.618Z,6.07
2018-08-03T20:08:28.837Z,6.03
2018-08-03T20:10:58.626Z,5.63
2018-08-03T20:13:27.244Z,6.00
2018-08-03T20:15:55.917Z,6.27
2018-08-03T20:18:25.071Z,5.80
2018-08-03T20:20:53.817Z,6.30
2018-08-03T20:23:22.420Z,6.20
2018-08-03T20:25:51.072Z,6.07
2018-08-03T20:28:19.756Z,6.00
2018-08-03T20:30:48.541Z,5.70
2018-08-03T20:33:17.395Z,6.53
2018-08-03T20:35:45.644Z,6.33
2018-08-03T20:38:14.292Z,6.17
2018-08-03T20:40:43.150Z,5.93
2018-08-03T20:43:11.504Z,5.70
2018-08-03T20:45:41.029Z,5.93
2018-08-03T20:48:09.279Z,6.50
2018-08-03T20:50:38.801Z,5.57
2018-08-03T20:53:07.384Z,6.13
2018-08-03T20:55:35.877Z,5.97
2018-08-03T20:58:04.124Z,5.67
2018-08-03T21:00:32.656Z,5.87
2018-08-03T21:03:02.029Z,5.43
2018-08-03T21:05:31.229Z,6.20
2018-08-03T21:07:59.790Z,6.40
2018-08-03T21:10:28.372Z,6.60
2018-08-03T21:12:57.162Z,6.47
2018-08-03T21:15:25.822Z,6.50
2018-08-03T21:17:54.409Z,5.80
2018-08-03T21:20:22.950Z,6.90
2018-08-03T21:22:51.157Z,7.10
2018-08-03T21:25:20.381Z,6.40
2018-08-03T21:27:48.928Z,6.43
2018-08-03T21:30:17.499Z,6.47
2018-08-03T21:32:46.058Z,6.67
2018-08-03T21:35:15.475Z,6.57
2018-08-03T21:37:44.296Z,6.83
2018-08-03T21:40:12.837Z,6.43
2018-08-03T21:42:41.378Z,6.07
2018-08-03T21:45:09.907Z,6.17
2018-08-03T21:47:38.954Z,6.90
2018-08-03T21:50:07.585Z,6.23
2018-08-03T21:52:37.140Z,5.77
2018-08-03T21:55:05.812Z,6.07
2018-08-03T21:57:34.952Z,5.93
2018-08-03T22:00:04.133Z,5.87
2018-08-03T22:02:32.731Z,6.80
2018-08-03T22:05:01.296Z,7.53
2018-08-03T22:07:29.914Z,6.60
2018-08-03T22:09:58.480Z,7.07
2018-08-03T22:12:27.070Z,6.70
2018-08-03T22:14:55.616Z,6.37
2018-08-03T22:17:25.218Z,5.97
2018-08-03T22:19:53.764Z,5.70
2018-08-03T22:22:22.348Z,6.27
2018-08-03T22:24:50.702Z,6.07
2018-08-03T22:27:19.313Z,6.10
2018-08-03T22:29:47.946Z,6.53
2018-08-03T22:32:16.550Z,6.63
2018-08-03T22:34:45.570Z,6.70
2018-08-03T22:37:14.954Z,6.77
2018-08-03T22:39:44.037Z,6.87
2018-08-03T22:42:12.633Z,6.87
2018-08-03T22:44:41.222Z,6.40
2018-08-03T22:47:09.795Z,6.07
2018-08-03T22:49:38.858Z,6.30
2018-08-03T22:52:08.380Z,6.53
2018-08-03T22:54:37.654Z,6.37
2018-08-03T22:57:06.236Z,6.53
2018-08-03T22:59:34.791Z,6.20
2018-08-03T23:02:03.460Z,5.70
2018-08-03T23:04:32.035Z,6.10
2018-08-03T23:07:00.647Z,6.10
2018-08-03T23:09:29.191Z,6.27
2018-08-03T23:11:57.805Z,6.43
2018-08-03T23:14:27.139Z,6.83
2018-08-03T23:16:55.740Z,6.13
2018-08-03T23:19:24.876Z,6.87
2018-08-03T23:21:53.476Z,6.70
2018-08-03T23:24:23.117Z,6.60
2018-08-03T23:26:51.870Z,7.07
2018-08-03T23:29:21.066Z,6.80
2018-08-03T23:31:50.729Z,6.97
2018-08-03T23:34:19.309Z,7.47
2018-08-03T23:36:47.882Z,7.37
2018-08-03T23:39:16.852Z,7.73
2018-08-03T23:41:45.610Z,7.07
2018-08-03T23:44:14.420Z,6.43
2018-08-03T23:46:43.763Z,6.87
2018-08-03T23:49:12.009Z,6.30
2018-08-03T23:51:40.557Z,6.20
2018-08-03T23:54:09.755Z,6.37
2018-08-03T23:56:38.874Z,6.40
2018-08-03T23:59:08.254Z,7.63
